Time;durP1;ratioP1;P1;durP2;ratioP2;P2;SDS_P1;SDS_P2;PMS_P1;PMS_P2;Temp;Humidity;BMP_temperature;BMP_pressure;BME280_temperature;BME280_humidity;BME280_pressure;Samples;Min_cycle;Max_cycle;Signal;HPM_P1;HPM_P2
2023/03/23 00:01:49;;;;;;;12.50;7.30;;;11.40;99.90;;;;;;6251334;22;20042;-89
2023/03/23 00:04:16;;;;;;;11.23;7.30;;;11.50;99.90;;;;;;6277374;22;20018;-88
2023/03/23 00:06:42;;;;;;;13.00;7.40;;;11.40;99.90;;;;;;6278868;22;20015;-89
2023/03/23 00:09:09;;;;;;;11.80;7.32;;;11.50;99.90;;;;;;6250610;22;20008;-89
2023/03/23 00:11:35;;;;;;;11.93;7.45;;;11.50;99.90;;;;;;6251294;22;20389;-91
2023/03/23 00:14:01;;;;;;;11.40;7.03;;;11.50;99.90;;;;;;6278534;22;20065;-90
2023/03/23 00:16:30;;;;;;;10.52;7.07;;;11.50;99.90;;;;;;6250107;22;20011;-91
2023/03/23 00:19:01;;;;;;;10.73;6.70;;;11.50;99.90;;;;;;6251092;22;20012;-90
2023/03/23 00:21:35;;;;;;;15.05;7.47;;;11.50;99.90;;;;;;6250793;22;20375;-90
2023/03/23 00:24:15;;;;;;;12.75;6.85;;;11.50;99.90;;;;;;6250386;22;20440;-91
2023/03/23 00:26:46;;;;;;;11.93;6.43;;;11.50;99.90;;;;;;6250925;22;20019;-90
2023/03/23 00:29:15;;;;;;;14.07;7.22;;;11.50;99.90;;;;;;6250734;22;20008;-91
2023/03/23 00:31:46;;;;;;;14.10;7.00;;;11.60;99.90;;;;;;6250207;22;20047;-89
2023/03/23 00:34:12;;;;;;;11.90;6.80;;;11.50;99.90;;;;;;6250551;22;20015;-90
2023/03/23 00:36:42;;;;;;;16.98;7.47;;;11.50;99.90;;;;;;6278430;22;20003;-89
2023/03/23 00:39:08;;;;;;;10.75;6.32;;;11.60;99.90;;;;;;6250468;22;20019;-90
2023/03/23 00:41:36;;;;;;;13.02;6.10;;;11.50;99.90;;;;;;6250699;22;20031;-91
2023/03/23 00:44:02;;;;;;;12.60;6.90;;;11.60;99.90;;;;;;6251076;22;20011;-91
2023/03/23 00:46:28;;;;;;;12.25;6.57;;;11.50;99.90;;;;;;6250086;22;20020;-90
2023/03/23 00:48:56;;;;;;;14.35;6.50;;;11.60;99.90;;;;;;6251035;22;20008;-91
2023/03/23 00:51:22;;;;;;;11.38;5.82;;;11.60;99.90;;;;;;6277094;22;20015;-91
2023/03/23 00:53:48;;;;;;;10.98;6.30;;;11.60;99.90;;;;;;6251013;22;20363;-91
2023/03/23 00:56:14;;;;;;;12.43;6.22;;;11.60;99.90;;;;;;6250687;22;20043;-91
2023/03/23 00:58:40;;;;;;;10.68;5.50;;;11.60;99.90;;;;;;6277588;22;20008;-90
2023/03/23 01:01:05;;;;;;;12.13;5.85;;;11.60;99.90;;;;;;6278218;22;20069;-90
2023/03/23 01:03:31;;;;;;;11.25;5.75;;;11.60;99.90;;;;;;6278062;22;20015;-92
2023/03/23 01:05:57;;;;;;;12.25;5.95;;;11.60;99.90;;;;;;6251184;22;20059;-90
2023/03/23 01:08:23;;;;;;;14.02;5.95;;;11.60;99.90;;;;;;6277557;22;20090;-91
2023/03/23 01:10:50;;;;;;;10.93;5.28;;;11.60;99.90;;;;;;6251006;22;20505;-92
2023/03/23 01:13:16;;;;;;;9.45;5.32;;;11.60;99.90;;;;;;6250407;22;20039;-90
2023/03/23 01:15:42;;;;;;;10.13;4.93;;;11.60;99.90;;;;;;6250374;22;20018;-91
2023/03/23 01:18:09;;;;;;;9.85;4.88;;;11.60;99.90;;;;;;6250520;22;20003;-90
2023/03/23 01:20:36;;;;;;;11.63;4.88;;;11.60;99.90;;;;;;6277258;22;20022;-92
2023/03/23 01:23:03;;;;;;;9.63;4.90;;;11.60;99.90;;;;;;6278374;22;20314;-92
2023/03/23 01:25:30;;;;;;;9.25;4.82;;;11.60;99.90;;;;;;6250174;22;20012;-90
2023/03/23 01:27:57;;;;;;;10.90;4.60;;;11.60;99.90;;;;;;6277638;22;20019;-91
2023/03/23 01:30:23;;;;;;;10.80;5.00;;;11.60;99.90;;;;;;6277487;22;20062;-91
2023/03/23 01:32:50;;;;;;;13.73;4.88;;;11.60;99.90;;;;;;6250689;22;20091;-90
2023/03/23 01:35:16;;;;;;;9.10;4.57;;;11.60;99.90;;;;;;6250110;22;20058;-90
2023/03/23 01:37:42;;;;;;;9.98;4.80;;;11.60;99.90;;;;;;6250689;22;20016;-91
2023/03/23 01:40:08;;;;;;;13.70;4.50;;;11.60;99.90;;;;;;6250523;22;20090;-91
2023/03/23 01:42:36;;;;;;;9.40;4.40;;;11.60;99.90;;;;;;6277071;22;20051;-90
2023/03/23 01:45:28;;;;;;;7.07;4.05;;;11.60;99.90;;;;;;6277376;22;20011;-90
2023/03/23 01:48:03;;;;;;;10.45;4.53;;;11.60;99.90;;;;;;6277413;22;20444;-90
2023/03/23 01:50:34;;;;;;;8.40;4.00;;;11.60;99.90;;;;;;6270889;22;20015;-91
2023/03/23 01:53:02;;;;;;;7.38;4.32;;;11.60;99.90;;;;;;6278120;22;20309;-89
2023/03/23 01:55:28;;;;;;;8.98;4.30;;;11.60;99.90;;;;;;6250420;22;20016;-92
2023/03/23 01:57:56;;;;;;;10.05;4.10;;;11.60;99.90;;;;;;6250571;22;20016;-91
2023/03/23 02:00:24;;;;;;;9.02;3.70;;;11.60;99.90;;;;;;6250062;22;20531;-92
2023/03/23 02:02:52;;;;;;;9.98;4.25;;;11.60;99.90;;;;;;6249939;22;20016;-91
2023/03/23 02:05:28;;;;;;;10.75;3.65;;;11.60;99.90;;;;;;6250300;22;20011;-91
2023/03/23 02:08:02;;;;;;;7.93;4.25;;;11.60;99.90;;;;;;6250304;22;20051;-92
2023/03/23 02:10:28;;;;;;;8.25;3.65;;;11.60;99.90;;;;;;6250164;22;20020;-90
2023/03/23 02:12:54;;;;;;;12.25;3.75;;;11.60;99.90;;;;;;6250767;22;20464;-91
2023/03/23 02:15:22;;;;;;;8.88;4.18;;;11.60;99.90;;;;;;6250762;22;20043;-93
2023/03/23 02:18:06;;;;;;;7.88;3.70;;;11.60;99.90;;;;;;6250334;22;20438;-89
2023/03/23 02:20:38;;;;;;;10.57;3.97;;;11.70;99.90;;;;;;6276755;22;20130;-91
2023/03/23 02:23:30;;;;;;;11.88;3.90;;;11.60;99.90;;;;;;6249986;22;20331;-91
2023/03/23 02:26:21;;;;;;;10.20;3.53;;;11.60;99.90;;;;;;6244856;22;20022;-91
2023/03/23 02:29:08;;;;;;;8.77;3.67;;;11.60;99.90;;;;;;6250642;22;20016;-92
2023/03/23 02:32:05;;;;;;;8.40;3.50;;;11.60;99.90;;;;;;6249962;22;20061;-89
2023/03/23 02:34:41;;;;;;;9.13;3.50;;;11.60;99.90;;;;;;6250027;22;20012;-91
2023/03/23 02:37:27;;;;;;;8.52;3.72;;;11.60;99.90;;;;;;6250018;22;20011;-91
2023/03/23 02:40:00;;;;;;;8.52;3.58;;;11.60;99.90;;;;;;6250459;22;20047;-91
2023/03/23 02:42:29;;;;;;;9.52;3.67;;;11.60;99.90;;;;;;6277332;22;20015;-91
2023/03/23 02:44:58;;;;;;;11.23;3.40;;;11.60;99.90;;;;;;6249409;22;20341;-91
2023/03/23 02:47:27;;;;;;;8.07;3.50;;;11.60;99.90;;;;;;6249346;22;20074;-90
2023/03/23 02:49:55;;;;;;;7.30;3.45;;;11.60;99.90;;;;;;6249977;22;20027;-91
2023/03/23 02:52:25;;;;;;;11.73;3.60;;;11.60;99.90;;;;;;6249491;22;20396;-90
2023/03/23 02:54:52;;;;;;;9.85;3.50;;;11.60;99.90;;;;;;6250651;22;20015;-91
2023/03/23 02:57:18;;;;;;;6.97;3.13;;;11.60;99.90;;;;;;6249874;22;20113;-92
2023/03/23 02:59:44;;;;;;;7.60;3.25;;;11.60;99.90;;;;;;6250124;22;20015;-91
2023/03/23 03:02:23;;;;;;;7.78;3.20;;;11.60;99.90;;;;;;6276254;22;20054;-92
2023/03/23 03:05:09;;;;;;;8.23;3.38;;;11.60;99.90;;;;;;6277693;22;20011;-91
2023/03/23 03:07:45;;;;;;;6.28;2.72;;;11.60;99.90;;;;;;6250349;22;20517;-91
2023/03/23 03:10:16;;;;;;;9.57;3.13;;;11.50;99.90;;;;;;6250098;22;20096;-91
2023/03/23 03:13:20;;;;;;;8.35;3.38;;;11.50;99.90;;;;;;6249985;22;20045;-94
2023/03/23 03:15:52;;;;;;;9.68;3.20;;;11.50;99.90;;;;;;6232868;22;20019;-92
2023/03/23 03:18:43;;;;;;;7.38;3.08;;;11.50;99.90;;;;;;6277734;22;20016;-92
2023/03/23 03:21:14;;;;;;;9.13;2.70;;;11.60;99.90;;;;;;6250375;22;20023;-93
2023/03/23 03:23:41;;;;;;;7.65;3.00;;;11.60;99.90;;;;;;6251384;22;20082;-92
2023/03/23 03:26:11;;;;;;;6.72;3.10;;;11.50;99.90;;;;;;6278081;22;20065;-92
2023/03/23 03:28:37;;;;;;;5.93;2.85;;;11.60;99.90;;;;;;6277342;22;20018;-92
2023/03/23 03:31:06;;;;;;;7.03;3.03;;;11.50;99.90;;;;;;6251232;22;20061;-92
2023/03/23 03:33:33;;;;;;;7.68;2.92;;;11.50;99.90;;;;;;6252417;22;20034;-92
2023/03/23 03:36:01;;;;;;;9.05;3.28;;;11.60;99.90;;;;;;6279937;22;20043;-92
2023/03/23 03:38:27;;;;;;;6.28;2.90;;;11.60;99.90;;;;;;6251853;22;20016;-90
2023/03/23 03:40:55;;;;;;;9.25;3.03;;;11.60;99.90;;;;;;6279101;22;20344;-91
2023/03/23 03:43:20;;;;;;;8.00;3.05;;;11.60;99.90;;;;;;6251336;22;20147;-92
2023/03/23 03:45:46;;;;;;;8.13;3.22;;;11.50;99.90;;;;;;6252409;22;20079;-91
2023/03/23 03:48:12;;;;;;;7.32;3.05;;;11.60;99.90;;;;;;6251488;22;20429;-90
2023/03/23 03:50:37;;;;;;;7.97;3.65;;;11.50;99.90;;;;;;6251467;22;20033;-91
2023/03/23 03:53:05;;;;;;;7.85;3.33;;;11.50;99.90;;;;;;6279163;22;20065;-90
2023/03/23 03:55:35;;;;;;;7.93;3.47;;;11.50;99.90;;;;;;6250704;22;20019;-90
2023/03/23 03:58:02;;;;;;;8.57;3.70;;;11.50;99.90;;;;;;6250504;22;20007;-91
2023/03/23 04:00:28;;;;;;;7.32;3.60;;;11.50;99.90;;;;;;6250525;22;20329;-90
2023/03/23 04:02:54;;;;;;;7.88;3.53;;;11.50;99.90;;;;;;6278156;22;20042;-90
2023/03/23 04:05:24;;;;;;;7.45;3.40;;;11.50;99.90;;;;;;6278250;22;20083;-91
2023/03/23 04:07:51;;;;;;;7.35;3.55;;;11.50;99.90;;;;;;6251981;22;20054;-92
2023/03/23 04:10:19;;;;;;;7.80;3.50;;;11.50;99.90;;;;;;6252061;22;20016;-92
2023/03/23 04:12:45;;;;;;;7.63;3.75;;;11.50;99.90;;;;;;6280050;22;20019;-90
2023/03/23 04:15:11;;;;;;;7.18;3.35;;;11.50;99.90;;;;;;6252012;22;20023;-89
2023/03/23 04:17:37;;;;;;;8.85;3.42;;;11.50;99.90;;;;;;6279289;22;20011;-91
2023/03/23 04:20:12;;;;;;;7.35;3.30;;;11.50;99.90;;;;;;6280105;22;20034;-90
2023/03/23 04:22:38;;;;;;;9.35;3.88;;;11.50;99.90;;;;;;6278260;22;20393;-91
2023/03/23 04:25:06;;;;;;;7.75;3.33;;;11.50;99.90;;;;;;6278857;22;20012;-92
2023/03/23 04:27:32;;;;;;;9.75;3.78;;;11.50;99.90;;;;;;6251228;22;20012;-92
2023/03/23 04:29:58;;;;;;;9.52;3.72;;;11.50;99.90;;;;;;6250941;22;20007;-92
2023/03/23 04:32:28;;;;;;;8.93;3.65;;;11.50;99.90;;;;;;6277620;22;20385;-91
2023/03/23 04:34:59;;;;;;;8.52;3.50;;;11.50;99.90;;;;;;6251835;22;20094;-92
2023/03/23 04:37:34;;;;;;;8.15;2.72;;;11.50;99.90;;;;;;6251383;22;20042;-91
2023/03/23 04:40:01;;;;;;;9.63;2.53;;;11.50;99.90;;;;;;6278623;22;20014;-88
2023/03/23 04:42:30;;;;;;;13.68;2.63;;;11.40;99.90;;;;;;6249999;22;20060;-89
2023/03/23 04:44:57;;;;;;;8.25;2.47;;;11.40;99.90;;;;;;6276471;22;20022;-89
2023/03/23 04:47:24;;;;;;;8.15;2.72;;;11.30;99.90;;;;;;6277505;22;20087;-87
2023/03/23 04:49:51;;;;;;;6.93;2.13;;;11.20;99.90;;;;;;6250414;22;20448;-89
2023/03/23 04:54:57;;;;;;;7.60;2.53;;;11.20;99.90;;;;;;6306300;22;20015;-90
2023/03/23 04:57:27;;;;;;;7.40;2.45;;;11.20;99.90;;;;;;6281121;22;20102;-89
2023/03/23 05:00:08;;;;;;;6.70;2.05;;;11.20;99.90;;;;;;6303509;22;20507;-88
2023/03/23 05:02:36;;;;;;;7.35;2.00;;;11.10;99.90;;;;;;6307619;22;20011;-90
2023/03/23 05:05:02;;;;;;;8.00;1.83;;;11.10;99.90;;;;;;6305940;22;20007;-91
2023/03/23 05:07:27;;;;;;;8.85;2.28;;;11.00;99.90;;;;;;6280992;22;20046;-90
2023/03/23 05:09:53;;;;;;;6.97;2.08;;;11.00;99.90;;;;;;6308643;22;20011;-91
2023/03/23 05:12:18;;;;;;;7.88;1.95;;;11.00;99.90;;;;;;6307087;22;20335;-90
2023/03/23 05:14:44;;;;;;;7.60;1.80;;;11.00;99.90;;;;;;6309085;22;20323;-89
2023/03/23 05:17:10;;;;;;;6.38;1.60;;;10.90;99.90;;;;;;6307733;22;20043;-89
2023/03/23 05:19:36;;;;;;;8.00;2.00;;;10.90;99.90;;;;;;6279492;22;20045;-88
2023/03/23 05:22:02;;;;;;;7.65;1.90;;;10.90;99.90;;;;;;6280268;22;20343;-89
2023/03/23 05:24:31;;;;;;;9.07;1.80;;;10.90;99.90;;;;;;6280150;22;20015;-88
2023/03/23 05:26:57;;;;;;;10.18;2.17;;;10.80;99.90;;;;;;6279992;22;20415;-88
2023/03/23 05:29:23;;;;;;;9.63;1.75;;;10.80;99.90;;;;;;6307981;22;20015;-88
2023/03/23 05:31:49;;;;;;;9.75;2.10;;;10.80;99.90;;;;;;6280896;22;20019;-88
2023/03/23 05:34:15;;;;;;;10.02;2.00;;;10.80;99.90;;;;;;6279463;22;20023;-88
2023/03/23 05:36:43;;;;;;;12.60;2.20;;;10.80;99.90;;;;;;6307943;22;20340;-88
2023/03/23 05:39:11;;;;;;;7.97;2.03;;;10.70;99.90;;;;;;6280211;22;20447;-89
2023/03/23 05:41:37;;;;;;;15.15;2.50;;;10.70;99.90;;;;;;6279814;22;20019;-89
2023/03/23 05:44:03;;;;;;;13.32;3.28;;;10.70;99.90;;;;;;6280812;22;20019;-90
2023/03/23 05:46:29;;;;;;;15.00;2.45;;;10.70;99.90;;;;;;6280419;22;20011;-89
2023/03/23 05:48:54;;;;;;;14.23;2.55;;;10.70;99.90;;;;;;6307268;22;20015;-89
2023/03/23 05:51:20;;;;;;;10.40;2.33;;;10.80;99.90;;;;;;6308071;22;20462;-89
2023/03/23 05:53:47;;;;;;;12.43;2.58;;;10.80;99.90;;;;;;6302982;22;20023;-89
2023/03/23 05:56:12;;;;;;;12.75;2.25;;;10.70;99.90;;;;;;6280570;22;20269;-90
2023/03/23 05:58:38;;;;;;;13.77;2.33;;;10.70;99.90;;;;;;6280843;22;20011;-88
2023/03/23 06:01:07;;;;;;;16.27;2.63;;;10.70;99.90;;;;;;6279439;22;20153;-89
2023/03/23 06:03:35;;;;;;;14.13;2.40;;;10.70;99.90;;;;;;6307946;22;20019;-88
2023/03/23 06:06:02;;;;;;;10.75;2.20;;;10.70;99.90;;;;;;6280875;22;20062;-89
2023/03/23 06:08:28;;;;;;;17.33;2.88;;;10.70;99.90;;;;;;6279502;22;20069;-90
2023/03/23 06:10:55;;;;;;;15.27;2.72;;;10.70;99.90;;;;;;6280480;22;20027;-90
2023/03/23 06:13:21;;;;;;;15.10;3.00;;;10.70;99.90;;;;;;6280371;22;20007;-89
2023/03/23 06:15:47;;;;;;;11.57;2.50;;;10.70;99.90;;;;;;6280239;22;20012;-89
2023/03/23 06:18:13;;;;;;;14.68;2.75;;;10.70;99.90;;;;;;6281025;22;20431;-90
2023/03/23 06:20:40;;;;;;;14.85;2.95;;;10.70;99.90;;;;;;6307681;22;20019;-90
2023/03/23 06:23:06;;;;;;;16.20;2.83;;;10.70;99.90;;;;;;6307395;22;20465;-91
2023/03/23 06:25:32;;;;;;;15.10;2.83;;;10.80;99.90;;;;;;6307853;22;20329;-90
2023/03/23 06:27:58;;;;;;;16.00;3.30;;;10.70;99.90;;;;;;6308799;22;20026;-91
2023/03/23 06:30:26;;;;;;;14.82;2.83;;;10.80;99.90;;;;;;6279892;22;20011;-90
2023/03/23 06:32:52;;;;;;;17.63;2.75;;;10.80;99.90;;;;;;6281172;22;20469;-90
2023/03/23 06:35:18;;;;;;;18.58;3.00;;;10.70;99.90;;;;;;6281467;22;20093;-91
2023/03/23 06:37:44;;;;;;;20.58;2.70;;;10.80;99.90;;;;;;6307386;22;20046;-90
2023/03/23 06:40:10;;;;;;;15.68;2.60;;;10.80;99.90;;;;;;6280568;22;20022;-90
2023/03/23 06:42:36;;;;;;;17.70;3.33;;;10.70;99.90;;;;;;6280653;22;20019;-90
2023/03/23 06:45:03;;;;;;;20.83;3.03;;;10.80;99.90;;;;;;6307561;22;20022;-91
2023/03/23 06:47:29;;;;;;;20.90;3.45;;;10.80;99.90;;;;;;6280674;22;20336;-91
2023/03/23 06:49:56;;;;;;;17.23;3.10;;;10.80;99.90;;;;;;6280686;22;20011;-90
2023/03/23 06:52:22;;;;;;;21.63;3.22;;;10.80;99.90;;;;;;6307574;22;20486;-91
2023/03/23 06:54:49;;;;;;;17.83;3.80;;;10.80;99.90;;;;;;6280622;22;20019;-91
2023/03/23 06:57:15;;;;;;;18.40;3.25;;;10.70;99.90;;;;;;6279677;22;20011;-92
2023/03/23 06:59:41;;;;;;;16.95;3.80;;;10.80;99.90;;;;;;6308330;22;20042;-91
2023/03/23 07:02:12;;;;;;;21.25;3.45;;;10.80;99.90;;;;;;6280660;22;20022;-91
2023/03/23 07:04:38;;;;;;;20.00;3.38;;;10.80;99.90;;;;;;6281023;22;20015;-90
2023/03/23 07:07:05;;;;;;;26.70;3.85;;;10.80;99.90;;;;;;6280434;22;20020;-92
2023/03/23 07:09:31;;;;;;;21.25;3.25;;;10.80;99.90;;;;;;6280871;22;20011;-91
2023/03/23 07:11:56;;;;;;;21.60;3.85;;;10.80;99.90;;;;;;6280258;22;20056;-91
2023/03/23 07:14:22;;;;;;;22.13;3.83;;;10.80;99.90;;;;;;6308263;22;20046;-91
2023/03/23 07:16:48;;;;;;;23.25;3.80;;;10.90;99.90;;;;;;6280808;22;20015;-91
2023/03/23 07:19:14;;;;;;;20.35;3.53;;;10.80;99.90;;;;;;6307850;22;20023;-91
2023/03/23 07:21:40;;;;;;;17.65;3.95;;;10.80;99.90;;;;;;6280706;22;20395;-91
2023/03/23 07:24:06;;;;;;;18.80;3.65;;;10.80;99.90;;;;;;6280902;22;20094;-91
2023/03/23 07:26:32;;;;;;;23.45;4.47;;;10.90;99.90;;;;;;6279707;22;20094;-91
2023/03/23 07:28:57;;;;;;;24.58;4.00;;;10.90;99.90;;;;;;6308417;22;20049;-91
2023/03/23 07:31:23;;;;;;;21.55;3.92;;;10.90;99.90;;;;;;6280576;22;20025;-92
2023/03/23 07:33:49;;;;;;;24.40;4.10;;;10.80;99.90;;;;;;6281107;22;20022;-91
2023/03/23 07:36:14;;;;;;;22.80;3.90;;;10.90;99.90;;;;;;6280469;22;20026;-92
2023/03/23 07:38:41;;;;;;;19.17;3.83;;;10.90;99.90;;;;;;6308001;22;20007;-91
2023/03/23 07:41:07;;;;;;;25.85;3.60;;;10.90;99.90;;;;;;6279939;22;20045;-91
2023/03/23 07:43:32;;;;;;;24.23;3.97;;;10.90;99.90;;;;;;6307900;22;20478;-90
2023/03/23 07:45:58;;;;;;;27.90;3.85;;;11.00;99.90;;;;;;6308794;22;20034;-91
2023/03/23 07:48:24;;;;;;;29.30;4.32;;;11.00;99.90;;;;;;6308490;22;20450;-90
2023/03/23 07:50:50;;;;;;;24.08;3.50;;;11.00;99.90;;;;;;6308074;22;20041;-92
2023/03/23 07:53:15;;;;;;;23.10;3.78;;;11.00;99.90;;;;;;6279912;22;20043;-92
2023/03/23 07:55:41;;;;;;;28.80;4.68;;;11.10;99.90;;;;;;6280434;22;20047;-92
2023/03/23 07:58:08;;;;;;;23.30;4.10;;;11.00;99.90;;;;;;6280852;22;20352;-90
2023/03/23 08:00:34;;;;;;;22.13;3.75;;;11.10;99.90;;;;;;6279843;22;20015;-91
2023/03/23 08:03:00;;;;;;;26.00;4.35;;;11.10;99.90;;;;;;6308444;22;20083;-91
2023/03/23 08:05:27;;;;;;;24.08;4.10;;;11.10;99.90;;;;;;6280351;22;20011;-92
2023/03/23 08:07:56;;;;;;;26.85;4.72;;;11.10;99.90;;;;;;6281963;22;20024;-91
2023/03/23 08:10:23;;;;;;;29.95;5.25;;;11.10;99.90;;;;;;6280970;22;20018;-92
2023/03/23 08:12:52;;;;;;;26.48;4.15;;;11.20;99.90;;;;;;6310230;22;20375;-91
2023/03/23 08:15:19;;;;;;;26.17;4.15;;;11.10;99.90;;;;;;6281066;22;20490;-91
2023/03/23 08:17:44;;;;;;;27.63;5.05;;;11.20;99.90;;;;;;6282698;22;20015;-91
2023/03/23 08:20:13;;;;;;;26.35;4.18;;;11.20;99.90;;;;;;6284125;22;20019;-93
2023/03/23 08:22:40;;;;;;;27.02;4.72;;;11.20;99.90;;;;;;6282281;22;20468;-92
2023/03/23 08:25:09;;;;;;;27.25;4.43;;;11.20;99.90;;;;;;6282012;22;20027;-91
2023/03/23 08:27:35;;;;;;;26.83;4.40;;;11.20;99.90;;;;;;6281358;22;20020;-93
2023/03/23 08:30:01;;;;;;;32.95;5.57;;;11.30;99.90;;;;;;6281468;22;20012;-91
2023/03/23 08:32:27;;;;;;;25.67;4.65;;;11.30;99.90;;;;;;6281925;22;20348;-92
2023/03/23 08:34:53;;;;;;;31.13;5.25;;;11.30;99.90;;;;;;6282219;22;20015;-93
2023/03/23 08:37:19;;;;;;;32.17;4.93;;;11.30;99.90;;;;;;6282000;22;20029;-93
2023/03/23 08:39:44;;;;;;;28.35;5.50;;;11.30;99.90;;;;;;6310710;22;20053;-92
2023/03/23 08:42:11;;;;;;;29.45;5.50;;;11.40;99.90;;;;;;6309772;22;20042;-92
2023/03/23 08:44:37;;;;;;;28.48;4.72;;;11.30;99.90;;;;;;6309472;22;20020;-92
2023/03/23 08:47:04;;;;;;;31.92;5.05;;;11.40;99.90;;;;;;6282539;22;20019;-93
2023/03/23 08:49:34;;;;;;;28.95;5.28;;;11.40;99.90;;;;;;6282587;22;20015;-90
2023/03/23 08:51:59;;;;;;;28.88;5.05;;;11.40;99.90;;;;;;6283527;22;20015;-93
2023/03/23 08:54:26;;;;;;;29.35;5.00;;;11.40;99.90;;;;;;6282751;22;20023;-92
2023/03/23 08:56:52;;;;;;;23.23;4.25;;;11.40;99.90;;;;;;6283308;22;20019;-92
2023/03/23 08:59:18;;;;;;;25.58;5.13;;;11.40;99.90;;;;;;6287455;22;20015;-93
2023/03/23 09:01:43;;;;;;;27.33;5.40;;;11.50;99.90;;;;;;6285292;22;20029;-95
2023/03/23 09:04:14;;;;;;;27.83;4.93;;;11.50;99.90;;;;;;6318996;22;20011;-95
2023/03/23 09:06:39;;;;;;;35.40;5.40;;;11.50;99.90;;;;;;6284324;22;20015;-94
2023/03/23 09:09:06;;;;;;;25.52;4.75;;;11.50;99.90;;;;;;6283446;22;20043;-95
2023/03/23 09:11:34;;;;;;;29.38;4.95;;;11.50;99.90;;;;;;6283372;22;20015;-94
2023/03/23 09:14:00;;;;;;;27.30;4.75;;;11.50;99.90;;;;;;6285311;22;20068;-95
2023/03/23 09:16:27;;;;;;;28.83;5.18;;;11.50;99.90;;;;;;6284531;22;20325;-96
2023/03/23 09:18:53;;;;;;;28.65;5.30;;;11.50;99.90;;;;;;6311190;22;20042;-95
2023/03/23 09:21:20;;;;;;;35.35;5.57;;;11.50;99.90;;;;;;6284707;22;20339;-95
2023/03/23 09:23:46;;;;;;;26.17;4.68;;;11.60;99.90;;;;;;6312657;22;20026;-95
2023/03/23 09:26:12;;;;;;;28.35;4.90;;;11.60;99.90;;;;;;6284832;22;20427;-95
2023/03/23 09:28:38;;;;;;;29.50;5.28;;;11.60;99.90;;;;;;6312858;22;20077;-96
2023/03/23 09:31:04;;;;;;;27.95;5.47;;;11.70;99.90;;;;;;6284428;22;20527;-95
2023/03/23 09:33:33;;;;;;;28.92;5.05;;;11.70;99.90;;;;;;6285515;22;20015;-95
2023/03/23 09:36:02;;;;;;;26.25;4.53;;;11.90;99.90;;;;;;6259619;22;20015;-96
2023/03/23 09:38:32;;;;;;;25.20;4.65;;;11.90;99.90;;;;;;6311155;22;20011;-93
2023/03/23 09:41:44;;;;;;;22.58;4.38;;;12.00;99.90;;;;;;6281851;22;20011;-92
2023/03/23 09:44:47;;;;;;;23.55;4.50;;;12.00;99.90;;;;;;6279023;22;20015;-91
2023/03/23 09:47:32;;;;;;;24.75;4.65;;;12.00;99.90;;;;;;6308595;22;20085;-93
2023/03/23 09:50:14;;;;;;;26.00;4.30;;;12.00;99.90;;;;;;6281995;22;20058;-92
2023/03/23 09:52:56;;;;;;;32.50;5.47;;;12.00;99.90;;;;;;6282252;22;20014;-92
2023/03/23 09:55:22;;;;;;;24.08;4.65;;;11.90;99.90;;;;;;6277399;22;20011;-93
2023/03/23 09:58:23;;;;;;;24.65;4.05;;;11.90;99.90;;;;;;6282254;22;20102;-93
2023/03/23 10:01:02;;;;;;;24.67;4.18;;;11.90;99.90;;;;;;6259483;22;20076;-92
2023/03/23 10:03:34;;;;;;;26.23;4.38;;;11.80;99.90;;;;;;6281997;22;20015;-94
2023/03/23 10:06:00;;;;;;;23.85;3.90;;;11.80;99.90;;;;;;6283865;22;20099;-95
2023/03/23 10:08:38;;;;;;;19.42;4.38;;;11.80;99.90;;;;;;6286931;22;20020;-96
2023/03/23 10:11:14;;;;;;;20.83;4.03;;;11.80;99.90;;;;;;6290561;22;20015;-96
2023/03/23 10:14:19;;;;;;;21.83;3.72;;;11.80;99.90;;;;;;6294760;22;20015;-95
2023/03/23 10:16:57;;;;;;;21.65;3.90;;;11.80;99.90;;;;;;6292033;22;20019;-96
2023/03/23 10:19:47;;;;;;;25.92;4.13;;;11.80;99.90;;;;;;6300189;22;20011;-95
2023/03/23 10:22:19;;;;;;;23.55;4.18;;;11.90;99.90;;;;;;6295397;22;20027;-96
2023/03/23 10:24:52;;;;;;;25.60;4.63;;;11.90;99.90;;;;;;6318793;22;20016;-95
2023/03/23 10:27:45;;;;;;;25.85;4.20;;;12.00;99.90;;;;;;6325655;22;20022;-96
2023/03/23 10:30:22;;;;;;;;;;;12.00;99.90;;;;;;6289897;22;20012;-95
2023/03/23 10:33:03;;;;;;;26.70;4.72;;;12.00;99.90;;;;;;6286532;22;19934;-95
2023/03/23 10:35:51;;;;;;;23.00;3.67;;;12.10;99.90;;;;;;6284240;22;20023;-95
2023/03/23 10:38:43;;;;;;;19.15;3.50;;;12.10;99.90;;;;;;6296868;22;20015;-95
2023/03/23 10:41:17;;;;;;;21.02;3.75;;;12.20;99.90;;;;;;6294960;22;20049;-96
2023/03/23 10:44:00;;;;;;;;;;;;;;;;;;;;;
2023/03/23 10:46:58;;;;;;;19.23;3.75;;;12.40;99.90;;;;;;6290721;22;20043;-96
2023/03/23 10:49:32;;;;;;;16.17;2.97;;;12.50;99.90;;;;;;6319276;22;20098;-96
2023/03/23 10:52:18;;;;;;;14.73;3.10;;;12.60;99.90;;;;;;6319652;22;20011;-96
2023/03/23 10:55:10;;;;;;;20.20;3.03;;;12.70;99.70;;;;;;6292730;22;20060;-96
2023/03/23 10:57:39;;;;;;;16.80;2.97;;;12.80;99.30;;;;;;6324806;22;20023;-96
2023/03/23 11:00:17;;;;;;;14.43;2.58;;;13.00;99.20;;;;;;6297225;22;20056;-96
2023/03/23 11:03:29;;;;;;;18.13;2.92;;;13.00;98.20;;;;;;6299456;22;20022;-96
2023/03/23 11:06:01;;;;;;;17.80;2.95;;;13.00;97.30;;;;;;6320101;22;20321;-96
2023/03/23 11:09:00;;;;;;;15.15;2.92;;;13.10;97.60;;;;;;6289723;22;20026;-95
2023/03/23 11:11:30;;;;;;;15.82;3.38;;;13.10;97.90;;;;;;6301821;22;20011;-96
2023/03/23 11:14:18;;;;;;;16.73;3.38;;;13.20;97.90;;;;;;6296501;22;20055;-96
2023/03/23 11:16:55;;;;;;;17.58;3.35;;;13.30;97.30;;;;;;6296376;22;20018;-96
2023/03/23 11:23:34;;;;;;;14.70;2.95;;;13.40;96.80;;;;;;6298424;22;20034;-95
2023/03/23 11:26:19;;;;;;;17.30;3.22;;;13.40;96.90;;;;;;6283784;22;20039;-96
2023/03/23 11:28:59;;;;;;;18.08;3.50;;;13.50;96.60;;;;;;6294896;22;20073;-96
2023/03/23 11:34:23;;;;;;;14.10;2.90;;;13.50;96.70;;;;;;6318586;22;20447;-93
2023/03/23 11:36:55;;;;;;;15.70;2.90;;;13.50;96.50;;;;;;6308584;22;20019;-92
2023/03/23 11:39:33;;;;;;;15.48;2.85;;;13.60;96.20;;;;;;6309642;22;20015;-93
2023/03/23 11:42:01;;;;;;;16.77;3.05;;;13.60;95.90;;;;;;6282363;22;20023;-90
2023/03/23 11:44:40;;;;;;;19.23;3.10;;;13.50;95.50;;;;;;6288147;22;20011;-94
2023/03/23 11:47:49;;;;;;;15.38;2.78;;;13.60;95.50;;;;;;6283761;22;20439;-94
2023/03/23 11:50:38;;;;;;;15.50;2.72;;;13.60;95.70;;;;;;6281999;22;20020;-96
2023/03/23 11:53:52;;;;;;;16.48;3.05;;;13.70;95.70;;;;;;6293523;22;20431;-96
2023/03/23 11:56:36;;;;;;;16.88;2.92;;;13.70;95.60;;;;;;6289215;22;20450;-91
2023/03/23 11:59:10;;;;;;;14.98;2.45;;;13.80;95.10;;;;;;6282735;22;20018;-91
2023/03/23 12:18:50;;;;;;;15.32;2.80;;;14.50;93.30;;;;;;6279457;22;20030;-89
2023/03/23 12:21:51;;;;;;;14.60;2.85;;;14.60;92.20;;;;;;6279002;22;20514;-92
2023/03/23 12:24:56;;;;;;;15.40;2.88;;;14.70;92.60;;;;;;6252201;22;20022;-89
2023/03/23 12:27:47;;;;;;;17.30;2.88;;;14.80;92.90;;;;;;6251601;22;20016;-91
2023/03/23 12:30:18;;;;;;;13.73;2.88;;;14.80;92.60;;;;;;6278611;22;20022;-93
2023/03/23 12:33:05;;;;;;;14.52;3.08;;;14.80;92.90;;;;;;6279434;22;20043;-91
2023/03/23 12:35:46;;;;;;;16.23;3.58;;;14.80;92.50;;;;;;6277794;22;20074;-90
2023/03/23 12:38:48;;;;;;;15.13;2.90;;;14.90;92.70;;;;;;6251852;22;20133;-92
2023/03/23 12:41:31;;;;;;;15.60;2.92;;;14.90;92.00;;;;;;6277971;22;20061;-88
2023/03/23 12:44:06;;;;;;;17.48;2.88;;;14.80;92.10;;;;;;6250493;22;20047;-88
2023/03/23 12:46:51;;;;;;;14.10;2.70;;;14.80;92.20;;;;;;6251579;22;20011;-90
2023/03/23 12:49:22;;;;;;;16.85;2.72;;;14.80;92.00;;;;;;6249756;22;20015;-89
2023/03/23 12:51:51;;;;;;;17.17;2.80;;;14.70;92.50;;;;;;6251256;22;20446;-89
2023/03/23 12:54:40;;;;;;;13.20;2.80;;;14.70;92.60;;;;;;6251053;22;20467;-88
2023/03/23 12:57:11;;;;;;;17.05;2.78;;;14.60;92.20;;;;;;6277585;22;20096;-88
2023/03/23 12:59:54;;;;;;;14.00;2.53;;;14.60;92.40;;;;;;6250675;22;20007;-88
2023/03/23 13:02:37;;;;;;;14.45;2.83;;;14.50;93.00;;;;;;6249749;22;20024;-90
2023/03/23 13:05:09;;;;;;;;;;;14.40;92.10;;;;;;6251112;22;20023;-90
2023/03/23 13:07:45;;;;;;;14.88;2.90;;;14.40;92.60;;;;;;6250827;22;19915;-90
2023/03/23 13:10:27;;;;;;;19.48;3.17;;;14.40;93.10;;;;;;6251225;22;20047;-92
2023/03/23 13:12:54;;;;;;;13.57;2.65;;;14.40;93.40;;;;;;6251883;22;20335;-92
2023/03/23 13:15:26;;;;;;;18.13;3.00;;;14.40;94.50;;;;;;6278881;22;20016;-93
2023/03/23 13:18:04;;;;;;;12.50;2.53;;;14.40;93.80;;;;;;6275676;22;20331;-95
2023/03/23 13:20:47;;;;;;;18.77;2.97;;;14.40;93.50;;;;;;6284370;22;20015;-94
2023/03/23 13:23:40;;;;;;;15.10;2.78;;;14.40;93.80;;;;;;6282553;22;20074;-93
2023/03/23 13:26:44;;;;;;;17.13;3.08;;;14.40;93.50;;;;;;6279318;22;20015;-93
2023/03/23 13:29:14;;;;;;;14.82;2.67;;;14.40;93.50;;;;;;6267162;22;20023;-96
2023/03/23 13:31:41;;;;;;;16.60;2.88;;;14.40;94.20;;;;;;6284340;22;20065;-91